createdAt,value
2023-05-02T00:08:42.641Z,99.99
2023-05-02T00:18:42.803Z,99.99
2023-05-02T00:28:43.039Z,99.99
2023-05-02T00:38:43.224Z,99.99
2023-05-02T00:48:43.386Z,99.99
2023-05-02T00:58:43.450Z,99.99
2023-05-02T01:08:43.701Z,99.99
2023-05-02T01:18:43.901Z,99.99
2023-05-02T01:28:43.994Z,99.99
2023-05-02T01:38:44.449Z,99.99
2023-05-02T01:48:44.374Z,99.99
2023-05-02T01:58:44.439Z,99.99
2023-05-02T02:08:44.661Z,99.99
2023-05-02T02:18:44.851Z,99.99
2023-05-02T02:28:45.101Z,99.99
2023-05-02T02:38:45.502Z,99.99
2023-05-02T02:48:45.508Z,99.99
2023-05-02T02:58:45.582Z,99.99
2023-05-02T03:08:46.070Z,99.99
2023-05-02T03:18:46.000Z,99.99
2023-05-02T03:28:46.208Z,99.99
2023-05-02T03:38:46.397Z,99.99
2023-05-02T03:48:46.862Z,99.99
2023-05-02T03:58:46.710Z,99.99
2023-05-02T04:08:46.934Z,99.99
2023-05-02T04:18:47.109Z,99.99
2023-05-02T04:28:47.364Z,99.99
2023-05-02T04:38:47.427Z,99.99
2023-05-02T04:48:47.666Z,99.99
2023-05-02T04:58:47.854Z,99.99
2023-05-02T05:08:47.967Z,99.99
2023-05-02T05:18:48.142Z,99.50
2023-05-02T05:28:48.497Z,98.07
2023-05-02T05:38:48.417Z,97.36
2023-05-02T05:48:48.629Z,97.62
2023-05-02T05:58:48.918Z,95.69
2023-05-02T06:08:48.884Z,93.66
2023-05-02T06:18:50.083Z,92.64
2023-05-02T06:28:49.475Z,93.96
2023-05-02T06:38:49.733Z,95.75
2023-05-02T06:48:49.716Z,95.44
2023-05-02T06:58:49.773Z,94.02
2023-05-02T07:08:49.967Z,92.29
2023-05-02T07:18:50.152Z,92.04
2023-05-02T07:28:50.528Z,90.77
2023-05-02T07:38:50.455Z,87.29
2023-05-02T07:48:50.781Z,88.69
2023-05-02T07:58:51.024Z,86.88
2023-05-02T08:08:50.913Z,86.68
2023-05-02T08:18:51.281Z,87.98
2023-05-02T08:28:51.280Z,86.53
2023-05-02T08:38:51.520Z,85.82
2023-05-02T08:48:51.825Z,85.27
2023-05-02T08:58:51.770Z,82.87
2023-05-02T09:08:52.077Z,85.92
2023-05-02T09:18:52.122Z,87.75
2023-05-02T09:28:52.690Z,84.13
2023-05-02T09:38:52.574Z,84.13
2023-05-02T09:48:52.737Z,83.67
2023-05-02T09:58:52.820Z,80.21
2023-05-02T10:08:52.927Z,80.29
2023-05-02T10:18:53.106Z,76.73
2023-05-02T10:28:53.384Z,72.64
2023-05-02T10:38:53.442Z,66.27
2023-05-02T10:48:53.943Z,72.85
2023-05-02T10:58:53.765Z,75.42
2023-05-02T11:08:54.486Z,64.21
2023-05-02T11:18:54.124Z,64.16
2023-05-02T11:28:54.439Z,65.62
2023-05-02T11:38:54.529Z,66.96
2023-05-02T11:48:54.732Z,61.07
2023-05-02T11:58:54.940Z,57.94
2023-05-02T12:08:55.162Z,60.48
2023-05-02T12:18:55.327Z,59.79
2023-05-02T12:28:55.804Z,61.55
2023-05-02T12:38:55.642Z,54.63
2023-05-02T12:48:56.043Z,56.08
2023-05-02T12:58:55.962Z,59.01
2023-05-02T13:08:56.167Z,62.68
2023-05-02T13:18:56.370Z,64.26
2023-05-02T13:28:56.484Z,62.82
2023-05-02T13:38:56.675Z,61.79
2023-05-02T13:48:57.187Z,59.31
2023-05-02T13:58:57.015Z,64.94
2023-05-02T14:08:57.229Z,58.22
2023-05-02T14:18:57.596Z,62.08
2023-05-02T14:28:57.596Z,55.26
2023-05-02T14:38:57.779Z,54.15
2023-05-02T14:48:58.148Z,54.28
2023-05-02T14:58:58.454Z,57.96
2023-05-02T15:08:58.418Z,56.96
2023-05-02T15:18:58.671Z,57.44
2023-05-02T15:28:58.726Z,59.08
2023-05-02T15:38:58.907Z,61.25
2023-05-02T15:48:59.019Z,63.42
2023-05-02T15:58:59.449Z,62.16
2023-05-02T16:09:00.501Z,64.46
2023-05-02T16:18:59.718Z,65.73
2023-05-02T16:28:59.699Z,66.75
2023-05-02T16:38:59.757Z,62.59
2023-05-02T16:49:01.187Z,53.02
2023-05-02T16:59:00.217Z,53.90
2023-05-02T17:09:00.524Z,53.45
2023-05-02T17:19:00.456Z,54.43
2023-05-02T17:29:00.803Z,56.54
2023-05-02T17:39:00.864Z,54.22
2023-05-02T17:49:01.246Z,57.87
2023-05-02T17:59:01.250Z,63.73
2023-05-02T18:09:01.351Z,65.50
2023-05-02T18:19:01.861Z,69.51
2023-05-02T18:29:01.717Z,74.21
2023-05-02T18:39:02.058Z,77.09
2023-05-02T18:49:02.036Z,79.81
2023-05-02T18:59:02.312Z,82.43
2023-05-02T19:09:02.413Z,83.29
2023-05-02T19:19:02.587Z,82.92
2023-05-02T19:29:02.817Z,85.82
2023-05-02T19:39:03.008Z,85.92
2023-05-02T19:49:03.423Z,84.94
2023-05-02T19:59:03.399Z,84.22
2023-05-02T20:09:03.497Z,84.49
2023-05-02T20:19:03.920Z,83.57
2023-05-02T20:29:03.914Z,85.41
2023-05-02T20:39:04.164Z,84.88
2023-05-02T20:49:04.496Z,85.73
2023-05-02T20:59:04.449Z,87.35
2023-05-02T21:09:04.733Z,88.76
2023-05-02T21:19:04.921Z,90.58
2023-05-02T21:29:05.040Z,91.96
2023-05-02T21:39:05.228Z,92.68
2023-05-02T21:49:05.356Z,93.02
2023-05-02T21:59:05.784Z,93.59
2023-05-02T22:09:05.778Z,94.81
2023-05-02T22:19:09.150Z,94.85
2023-05-02T22:29:06.054Z,95.68
2023-05-02T22:39:06.234Z,97.31
2023-05-02T22:49:06.596Z,97.31
2023-05-02T22:59:06.572Z,97.20
2023-05-02T23:09:06.830Z,98.18
2023-05-02T23:19:06.797Z,98.49
2023-05-02T23:29:07.227Z,98.49
2023-05-02T23:39:07.184Z,98.79
2023-05-02T23:49:07.322Z,99.99
2023-05-02T23:59:07.594Z,99.99
